Time;durP1;ratioP1;P1;durP2;ratioP2;P2;SDS_P1;SDS_P2;PMS_P1;PMS_P2;Temp;Humidity;BMP_temperature;BMP_pressure;BME280_temperature;BME280_humidity;BME280_pressure;Samples;Min_cycle;Max_cycle;Signal;HPM_P1;HPM_P2
2022/05/04 00:02:17;;;;;;;21.63;6.30;;;;;;;7.47;77.50;101778.66;5013231;28;20108;-76
2022/05/04 00:04:42;;;;;;;20.58;5.93;;;;;;;7.39;77.54;101788.81;5013760;28;20026;-76
2022/05/04 00:07:07;;;;;;;20.40;6.45;;;;;;;7.31;77.73;101786.50;5011417;28;20072;-76
2022/05/04 00:09:32;;;;;;;21.67;6.32;;;;;;;7.26;77.59;101791.19;5011804;28;20029;-76
2022/05/04 00:11:58;;;;;;;17.60;5.78;;;;;;;7.18;77.60;101780.81;5013279;28;20038;-76
2022/05/04 00:14:25;;;;;;;17.92;5.82;;;;;;;7.14;77.85;101783.69;5013014;28;20416;-76
2022/05/04 00:16:51;;;;;;;22.00;7.18;;;;;;;7.08;78.13;101781.31;5012833;28;20030;-76
2022/05/04 00:19:17;;;;;;;16.45;5.55;;;;;;;7.03;78.35;101783.28;5032296;28;20036;-76
2022/05/04 00:21:42;;;;;;;18.58;6.20;;;;;;;6.97;78.47;101790.66;5024160;28;20409;-76
2022/05/04 00:24:07;;;;;;;22.75;7.10;;;;;;;6.94;78.97;101782.78;5012839;28;20042;-76
2022/05/04 00:26:32;;;;;;;20.15;7.47;;;;;;;6.94;79.24;101788.13;5011455;28;20389;-76
2022/05/04 00:28:58;;;;;;;19.40;6.57;;;;;;;6.96;79.42;101786.22;5012964;28;20036;-76
2022/05/04 00:31:23;;;;;;;20.05;6.88;;;;;;;6.98;79.75;101780.81;5012686;28;20421;-76
2022/05/04 00:33:48;;;;;;;18.70;6.45;;;;;;;6.97;80.46;101782.63;5011036;28;20025;-76
2022/05/04 00:36:14;;;;;;;19.70;6.75;;;;;;;6.99;80.59;101783.44;5012504;28;20034;-76
2022/05/04 00:38:39;;;;;;;22.45;6.50;;;;;;;7.07;81.02;101787.56;5012524;28;20064;-76
2022/05/04 00:41:04;;;;;;;21.88;6.72;;;;;;;7.10;82.10;101790.09;5012516;28;20042;-76
2022/05/04 00:43:29;;;;;;;21.23;6.38;;;;;;;7.17;82.01;101788.91;5012454;28;20048;-76
2022/05/04 00:45:55;;;;;;;18.58;6.50;;;;;;;7.23;81.77;101779.75;5011108;28;20060;-76
2022/05/04 00:48:20;;;;;;;21.25;6.93;;;;;;;7.29;82.14;101782.16;5024247;28;20035;-76
2022/05/04 00:50:48;;;;;;;25.52;6.78;;;;;;;7.35;81.63;101785.44;5032060;28;20542;-76
2022/05/04 00:53:13;;;;;;;21.83;6.60;;;;;;;7.40;81.46;101779.00;5031913;28;20036;-76
2022/05/04 00:55:39;;;;;;;23.52;7.97;;;;;;;7.42;81.08;101777.97;5032013;28;20435;-76
2022/05/04 01:00:51;;;;;;;21.65;7.43;;;;;;;7.54;81.35;101771.22;5029936;28;20555;-76
2022/05/04 01:03:17;;;;;;;19.25;6.45;;;;;;;7.58;81.24;101767.44;5012188;28;20084;-76
2022/05/04 01:05:43;;;;;;;17.73;6.55;;;;;;;7.60;80.52;101768.28;5011855;28;20033;-76
2022/05/04 01:08:08;;;;;;;22.95;7.72;;;;;;;7.62;81.02;101766.38;5011824;28;20444;-76
2022/05/04 01:10:34;;;;;;;22.45;7.05;;;;;;;7.66;80.98;101770.66;5012013;28;20136;-76
2022/05/04 01:12:59;;;;;;;21.25;6.90;;;;;;;7.72;81.79;101772.19;5010687;28;20026;-76
2022/05/04 01:15:25;;;;;;;26.75;7.80;;;;;;;7.75;80.97;101765.81;5012029;28;20029;-76
2022/05/04 01:17:50;;;;;;;18.38;6.97;;;;;;;7.78;81.20;101776.38;5019134;28;20087;-76
2022/05/04 01:20:17;;;;;;;19.27;6.28;;;;;;;7.80;81.12;101774.50;5031719;28;20033;-76
2022/05/04 01:22:42;;;;;;;23.90;7.57;;;;;;;7.82;80.09;101772.63;5031360;28;20105;-76
2022/05/04 01:25:09;;;;;;;21.58;6.55;;;;;;;7.86;80.15;101771.53;5031557;28;20108;-76
2022/05/04 01:27:34;;;;;;;21.50;6.75;;;;;;;7.91;81.32;101784.72;5030345;28;20037;-76
2022/05/04 01:30:00;;;;;;;21.38;6.22;;;;;;;7.94;79.76;101773.84;5031432;28;20548;-76
2022/05/04 01:32:25;;;;;;;24.02;7.60;;;;;;;7.95;79.74;101776.47;5031334;28;20124;-76
2022/05/04 01:34:51;;;;;;;21.92;6.35;;;;;;;7.99;79.75;101772.66;5030057;28;20025;-76
2022/05/04 01:37:16;;;;;;;20.77;6.25;;;;;;;8.03;78.99;101766.22;5029756;28;20037;-76
2022/05/04 01:39:41;;;;;;;21.50;6.35;;;;;;;8.08;78.95;101770.50;5031448;28;20062;-76
2022/05/04 01:42:13;;;;;;;21.85;6.32;;;;;;;8.11;78.64;101770.34;5031402;28;20165;-76
2022/05/04 01:44:39;;;;;;;20.10;6.03;;;;;;;8.12;78.31;101772.97;5031474;28;20021;-76
2022/05/04 01:47:05;;;;;;;20.48;6.15;;;;;;;8.15;78.00;101772.81;5030185;28;20041;-76
2022/05/04 01:49:30;;;;;;;19.00;5.97;;;;;;;8.20;77.23;101772.63;5031245;28;20099;-76
2022/05/04 01:51:55;;;;;;;23.90;6.97;;;;;;;8.19;77.27;101768.19;5014091;28;20069;-76
2022/05/04 01:54:20;;;;;;;17.63;5.50;;;;;;;8.17;76.35;101767.38;5011444;28;20109;-76
2022/05/04 01:56:46;;;;;;;21.50;6.85;;;;;;;8.20;76.56;101764.56;5011558;28;20117;-76
2022/05/04 01:59:11;;;;;;;20.48;5.70;;;;;;;8.21;76.96;101767.19;5011452;28;20033;-76
2022/05/04 02:01:39;;;;;;;17.10;5.70;;;;;;;8.21;76.63;101760.94;5011293;28;20421;-76
2022/05/04 02:04:05;;;;;;;21.00;6.05;;;;;;;8.22;76.48;101760.84;5011270;28;20500;-76
2022/05/04 02:06:31;;;;;;;18.63;5.88;;;;;;;8.25;75.96;101770.56;5009686;28;20026;-76
2022/05/04 02:08:57;;;;;;;18.70;6.32;;;;;;;8.25;76.91;101759.00;5011149;28;20153;-76
2022/05/04 02:11:23;;;;;;;18.77;5.93;;;;;;;8.26;75.90;101764.28;5009831;28;20033;-76
2022/05/04 02:13:48;;;;;;;22.60;6.63;;;;;;;8.26;76.10;101763.38;5011206;28;20018;-76
2022/05/04 02:16:13;;;;;;;18.73;5.88;;;;;;;8.28;76.28;101767.72;5011060;28;20030;-76
2022/05/04 02:18:39;;;;;;;18.20;6.30;;;;;;;8.26;75.52;101766.94;5023842;28;20030;-76
2022/05/04 02:21:04;;;;;;;21.90;5.88;;;;;;;8.27;75.90;101757.09;5027494;28;20478;-76
2022/05/04 02:23:29;;;;;;;18.02;4.97;;;;;;;8.26;75.38;101763.38;5009722;28;20028;-76
2022/05/04 02:25:54;;;;;;;20.15;5.78;;;;;;;8.23;74.94;101753.72;5011064;28;20029;-76
2022/05/04 02:28:20;;;;;;;20.45;5.53;;;;;;;8.20;75.34;101749.38;5009891;28;20116;-76
2022/05/04 02:30:45;;;;;;;18.75;6.07;;;;;;;8.20;75.28;101765.44;5011062;28;20494;-76
2022/05/04 02:33:13;;;;;;;21.15;6.80;;;;;;;8.18;75.57;101755.72;5010877;28;20092;-76
2022/05/04 02:38:22;;;;;;;23.38;5.90;;;;;;;8.14;75.28;101757.69;5010068;28;20092;-76
2022/05/04 02:40:48;;;;;;;23.63;6.00;;;;;;;8.10;74.96;101748.09;5010992;28;20022;-76
2022/05/04 02:43:13;;;;;;;18.00;6.05;;;;;;;8.14;75.45;101759.50;5011003;28;20405;-76
2022/05/04 02:45:39;;;;;;;20.58;5.32;;;;;;;8.14;75.28;101752.34;5010991;28;20037;-76
2022/05/04 02:48:05;;;;;;;24.02;6.78;;;;;;;8.13;75.13;101753.28;5020212;28;20025;-76
2022/05/04 02:50:30;;;;;;;23.10;5.95;;;;;;;8.09;74.95;101757.03;5012982;28;20499;-76
2022/05/04 02:52:55;;;;;;;16.95;4.97;;;;;;;8.07;75.14;101750.03;5030477;28;20029;-76
2022/05/04 02:55:20;;;;;;;16.95;5.38;;;;;;;8.07;75.19;101748.22;5030713;28;20028;-76
2022/05/04 02:57:46;;;;;;;20.10;4.90;;;;;;;8.05;74.65;101748.31;5030829;28;20026;-76
2022/05/04 03:00:12;;;;;;;20.25;5.38;;;;;;;8.02;74.66;101743.09;5034271;28;20040;-76
2022/05/04 03:02:37;;;;;;;22.50;5.35;;;;;;;7.97;74.94;101742.44;5017032;28;20053;-76
2022/05/04 03:05:05;;;;;;;19.63;5.95;;;;;;;7.93;75.91;101746.19;5013120;28;20022;-76
2022/05/04 03:07:31;;;;;;;19.67;6.10;;;;;;;7.95;75.08;101744.34;5014095;28;20429;-76
2022/05/04 03:09:57;;;;;;;21.80;6.22;;;;;;;7.96;75.35;101739.84;5012983;28;20072;-76
2022/05/04 03:12:23;;;;;;;20.65;6.53;;;;;;;7.94;75.58;101741.75;5014347;28;20037;-76
2022/05/04 03:14:48;;;;;;;19.67;5.43;;;;;;;7.89;75.82;101739.25;5014496;28;20470;-76
2022/05/04 03:17:14;;;;;;;18.70;5.43;;;;;;;7.85;75.17;101735.00;5014821;28;20124;-76
2022/05/04 03:19:39;;;;;;;18.55;5.68;;;;;;;7.81;76.21;101733.41;5033884;28;20029;-76
2022/05/04 03:22:05;;;;;;;21.48;6.20;;;;;;;7.80;75.53;101732.53;5033960;28;20444;-76
2022/05/04 03:24:31;;;;;;;19.45;5.53;;;;;;;7.76;75.33;101728.28;5034132;28;20462;-76
2022/05/04 03:26:56;;;;;;;21.20;6.25;;;;;;;7.72;75.65;101728.47;5033689;28;20025;-76
2022/05/04 03:29:22;;;;;;;22.05;6.90;;;;;;;7.67;74.96;101729.59;5033764;28;20026;-76
2022/05/04 03:31:47;;;;;;;22.02;6.07;;;;;;;7.62;75.38;101728.06;5033452;28;20031;-76
2022/05/04 03:34:12;;;;;;;22.23;5.68;;;;;;;7.57;76.52;101724.72;5032266;28;20496;-76
2022/05/04 03:36:37;;;;;;;20.52;5.75;;;;;;;7.55;76.03;101730.16;5033562;28;20033;-76
2022/05/04 03:39:04;;;;;;;20.08;5.45;;;;;;;7.53;77.04;101732.91;5032239;28;20103;-76
2022/05/04 03:41:29;;;;;;;19.00;6.28;;;;;;;7.48;77.09;101742.06;5033535;28;20430;-76
2022/05/04 03:43:54;;;;;;;21.35;5.80;;;;;;;7.45;77.16;101740.44;5033493;28;20130;-76
2022/05/04 03:46:23;;;;;;;17.08;5.22;;;;;;;7.41;76.70;101729.91;5033224;28;20029;-76
2022/05/04 03:48:59;;;;;;;20.00;5.72;;;;;;;7.39;77.16;101737.16;5033351;28;20057;-76
2022/05/04 03:51:25;;;;;;;21.55;5.85;;;;;;;7.34;77.71;101738.22;5020270;28;20504;-76
2022/05/04 03:53:52;;;;;;;18.95;5.50;;;;;;;7.30;77.64;101741.09;5012124;28;20033;-76
2022/05/04 03:56:19;;;;;;;20.77;5.53;;;;;;;7.27;78.00;101730.56;5013450;28;20034;-76
2022/05/04 03:58:44;;;;;;;21.35;6.53;;;;;;;7.22;77.36;101727.22;5013413;28;20065;-76
2022/05/04 04:01:11;;;;;;;19.88;5.95;;;;;;;7.20;77.04;101729.94;5011957;28;20060;-76
2022/05/04 04:03:37;;;;;;;20.60;6.55;;;;;;;7.17;77.07;101730.97;5012251;28;20048;-76
2022/05/04 04:06:02;;;;;;;22.75;6.85;;;;;;;7.11;77.62;101741.06;5013137;28;20029;-76
2022/05/04 04:08:28;;;;;;;16.77;5.35;;;;;;;7.04;78.09;101742.28;5012761;28;20058;-76
2022/05/04 04:10:53;;;;;;;21.02;5.78;;;;;;;6.97;78.23;101736.34;5011520;28;20029;-76
2022/05/04 04:13:19;;;;;;;21.23;5.80;;;;;;;6.89;78.34;101738.47;5013025;28;20110;-76
2022/05/04 04:15:46;;;;;;;18.35;5.85;;;;;;;6.80;78.35;101726.38;5011633;28;20421;-76
2022/05/04 04:18:11;;;;;;;20.92;6.78;;;;;;;6.75;78.72;101728.38;5023206;28;20035;-76
2022/05/04 04:23:20;;;;;;;19.80;6.35;;;;;;;6.69;78.57;101731.31;4993639;28;20085;-76
2022/05/04 04:25:46;;;;;;;23.52;6.30;;;;;;;6.66;79.20;101732.31;4993415;28;20448;-76
2022/05/04 04:28:11;;;;;;;20.63;5.95;;;;;;;6.61;79.13;101736.97;4993303;28;20026;-76
2022/05/04 04:30:38;;;;;;;17.33;5.78;;;;;;;6.50;79.25;101732.13;4993122;28;20114;-76
2022/05/04 04:33:04;;;;;;;18.27;5.88;;;;;;;6.45;79.94;101734.94;4993124;28;20110;-76
2022/05/04 04:35:30;;;;;;;20.17;6.35;;;;;;;6.41;80.18;101735.16;4993159;28;20096;-76
2022/05/04 04:37:55;;;;;;;19.05;6.40;;;;;;;6.39;80.51;101739.69;4991795;28;20030;-76
2022/05/04 04:40:21;;;;;;;18.20;5.85;;;;;;;6.36;80.62;101740.69;4991754;28;20038;-76
2022/05/04 04:42:46;;;;;;;18.05;5.78;;;;;;;6.36;80.62;101742.50;4993072;28;20065;-76
2022/05/04 04:45:11;;;;;;;25.67;6.95;;;;;;;6.34;81.19;101750.56;4993079;28;20022;-76
2022/05/04 04:47:37;;;;;;;20.63;6.70;;;;;;;6.34;80.91;101755.91;5003900;28;20026;-76
2022/05/04 04:50:02;;;;;;;18.92;6.22;;;;;;;6.32;81.49;101747.06;5032325;28;20060;-76
2022/05/04 04:52:27;;;;;;;20.65;5.97;;;;;;;6.34;81.44;101747.00;5030675;28;20036;-76
2022/05/04 04:54:52;;;;;;;20.80;6.65;;;;;;;6.34;81.43;101739.00;5030802;28;20040;-76
2022/05/04 04:57:18;;;;;;;21.10;6.80;;;;;;;6.33;81.36;101738.16;5031895;28;20461;-76
2022/05/04 04:59:43;;;;;;;22.05;7.05;;;;;;;6.34;81.45;101733.66;5032236;28;20033;-76
2022/05/04 05:02:09;;;;;;;22.55;7.30;;;;;;;6.30;81.91;101743.59;5031813;28;20558;-76
2022/05/04 05:04:34;;;;;;;21.75;6.03;;;;;;;6.26;81.37;101737.50;5030593;28;20025;-76
2022/05/04 05:06:59;;;;;;;20.20;6.45;;;;;;;6.23;80.87;101742.13;5031419;28;20029;-76
2022/05/04 05:09:25;;;;;;;15.57;5.47;;;;;;;6.22;81.31;101735.94;5030574;28;20025;-76
2022/05/04 05:11:50;;;;;;;23.48;6.13;;;;;;;6.19;81.60;101745.84;4999044;28;20026;-76
2022/05/04 05:16:59;;;;;;;18.25;6.55;;;;;;;6.22;81.79;101751.94;5012528;28;20137;-76
2022/05/04 05:19:25;;;;;;;23.27;7.03;;;;;;;6.23;82.03;101748.31;5031758;28;20096;-76
2022/05/04 05:21:50;;;;;;;20.33;6.78;;;;;;;6.27;82.56;101752.59;5030756;28;20062;-76
2022/05/04 05:24:16;;;;;;;21.77;6.82;;;;;;;6.33;82.06;101755.97;5030304;28;20112;-76
2022/05/04 05:26:41;;;;;;;20.48;7.15;;;;;;;6.40;82.35;101762.78;5031573;28;20021;-76
2022/05/04 05:29:06;;;;;;;25.30;7.05;;;;;;;6.44;81.96;101756.38;5031674;28;20083;-76
2022/05/04 05:31:31;;;;;;;22.50;7.55;;;;;;;6.51;81.25;101762.34;5031157;28;20025;-76
2022/05/04 05:33:57;;;;;;;20.65;6.65;;;;;;;6.58;81.45;101755.81;5031920;28;20025;-76
2022/05/04 05:36:22;;;;;;;19.65;6.82;;;;;;;6.63;80.48;101757.38;5029816;28;20086;-76
2022/05/04 05:38:47;;;;;;;18.70;5.95;;;;;;;6.69;80.67;101755.34;5031347;28;20048;-76
2022/05/04 05:41:12;;;;;;;20.48;6.78;;;;;;;6.75;80.99;101752.41;5031377;28;20021;-76
2022/05/04 05:43:38;;;;;;;26.05;6.97;;;;;;;6.80;80.51;101747.75;5031404;28;20079;-76
2022/05/04 05:46:03;;;;;;;27.02;7.10;;;;;;;6.85;81.67;101751.09;5031123;28;20403;-76
2022/05/04 05:48:28;;;;;;;22.55;7.05;;;;;;;6.92;80.35;101754.38;5031191;28;20021;-76
2022/05/04 05:50:53;;;;;;;21.33;8.27;;;;;;;6.99;80.64;101754.03;5022353;28;20041;-76
2022/05/04 05:53:19;;;;;;;21.20;6.68;;;;;;;7.05;79.09;101758.25;5011214;28;20026;-76
2022/05/04 05:55:45;;;;;;;25.45;7.43;;;;;;;7.10;80.34;101760.69;5011753;28;20690;-76
2022/05/04 05:58:10;;;;;;;21.42;6.78;;;;;;;7.14;78.59;101755.16;5011514;28;20038;-76
2022/05/04 06:00:36;;;;;;;19.38;6.53;;;;;;;7.22;78.47;101760.19;5010013;28;20041;-76
2022/05/04 06:03:02;;;;;;;23.55;6.97;;;;;;;7.30;77.88;101757.16;5011409;28;20053;-76
2022/05/04 06:05:27;;;;;;;20.25;6.00;;;;;;;7.37;77.50;101757.75;5011382;28;20462;-76
2022/05/04 06:07:52;;;;;;;24.17;6.70;;;;;;;7.43;78.19;101761.00;5010956;28;20172;-76
2022/05/04 06:10:17;;;;;;;19.85;6.88;;;;;;;7.50;76.60;101757.13;5010034;28;20056;-76
2022/05/04 06:12:44;;;;;;;23.80;6.03;;;;;;;7.56;76.70;101761.31;5011250;28;20109;-76
2022/05/04 06:15:10;;;;;;;22.15;7.32;;;;;;;7.64;76.19;101764.53;5010077;28;20060;-76
2022/05/04 06:17:36;;;;;;;21.73;6.40;;;;;;;7.72;76.36;101768.63;5016273;28;20025;-76
2022/05/04 06:20:06;;;;;;;24.05;6.85;;;;;;;7.79;76.27;101762.94;5031026;28;20029;-76
2022/05/04 06:22:31;;;;;;;21.92;6.65;;;;;;;7.85;75.99;101762.63;5030783;28;20500;-76
2022/05/04 06:24:56;;;;;;;24.67;7.38;;;;;;;7.89;75.30;101766.03;5031146;28;20029;-76
2022/05/04 06:27:22;;;;;;;27.48;7.20;;;;;;;7.97;75.29;101769.22;5031062;28;20030;-76
2022/05/04 06:35:15;;;;;;;24.80;7.72;;;;;;;8.15;73.70;101763.91;5033868;28;20045;-76
2022/05/04 06:37:41;;;;;;;22.10;7.30;;;;;;;8.22;73.56;101768.03;5033471;28;20397;-76
2022/05/04 06:40:07;;;;;;;23.00;7.40;;;;;;;8.30;73.67;101768.53;5029565;28;20079;-76
2022/05/04 06:42:32;;;;;;;22.33;6.85;;;;;;;8.37;73.39;101764.59;5013523;28;20033;-76
2022/05/04 06:44:58;;;;;;;24.77;7.68;;;;;;;8.42;72.21;101783.13;5013631;28;20030;-76
2022/05/04 06:47:23;;;;;;;20.08;6.63;;;;;;;8.47;73.17;101782.94;5018356;28;20061;-76
2022/05/04 06:49:48;;;;;;;20.35;6.18;;;;;;;8.52;71.79;101783.56;5034362;28;20438;-76
2022/05/04 06:52:14;;;;;;;21.40;6.72;;;;;;;8.60;73.11;101778.69;5033016;28;20048;-76
2022/05/04 06:54:39;;;;;;;23.73;6.97;;;;;;;8.66;72.29;101778.38;5034369;28;20029;-76
2022/05/04 06:57:04;;;;;;;20.98;6.85;;;;;;;8.74;70.90;101775.31;5032996;28;20022;-76
2022/05/04 06:59:30;;;;;;;21.58;6.55;;;;;;;8.77;69.83;101785.00;5033147;28;20374;-76
2022/05/04 07:01:55;;;;;;;19.73;6.50;;;;;;;8.80;70.41;101777.69;5034134;28;20059;-76
2022/05/04 07:04:21;;;;;;;21.42;7.50;;;;;;;8.83;70.61;101766.81;5034363;28;20041;-76
2022/05/04 07:06:46;;;;;;;23.52;6.53;;;;;;;8.87;69.60;101775.56;5034231;28;20037;-76
2022/05/04 07:09:11;;;;;;;21.25;6.97;;;;;;;8.94;70.13;101776.13;5034164;28;20540;-76
2022/05/04 07:11:37;;;;;;;19.98;6.30;;;;;;;8.96;68.92;101775.09;5021000;28;20081;-76
2022/05/04 07:14:03;;;;;;;22.45;6.60;;;;;;;9.05;69.14;101777.28;5013142;28;20092;-76
2022/05/04 07:16:28;;;;;;;16.30;5.30;;;;;;;9.12;67.70;101771.59;5014113;28;20473;-76
2022/05/04 07:18:53;;;;;;;21.00;6.30;;;;;;;9.22;68.54;101775.53;5028794;28;20440;-76
2022/05/04 07:21:19;;;;;;;22.92;7.25;;;;;;;9.27;67.84;101773.50;5033678;28;20033;-76
2022/05/04 07:23:44;;;;;;;23.42;6.65;;;;;;;9.35;67.69;101763.19;5033803;28;20104;-76
2022/05/04 07:26:09;;;;;;;20.98;6.30;;;;;;;9.41;66.68;101760.22;5032561;28;20036;-76
2022/05/04 07:28:34;;;;;;;25.50;6.63;;;;;;;9.49;66.73;101762.47;5032530;28;20044;-76
2022/05/04 07:31:00;;;;;;;18.95;6.13;;;;;;;9.57;66.05;101759.38;5033614;28;20489;-76
2022/05/04 07:33:25;;;;;;;23.20;7.05;;;;;;;9.64;66.75;101757.22;5033463;28;20026;-76
2022/05/04 07:35:50;;;;;;;23.33;6.63;;;;;;;9.68;65.88;101762.34;5033675;28;20025;-76
2022/05/04 07:38:16;;;;;;;23.17;6.97;;;;;;;9.72;65.87;101763.91;5032459;28;20047;-76
2022/05/04 07:43:25;;;;;;;21.63;6.30;;;;;;;9.83;65.52;101767.81;5033301;28;20035;-76
2022/05/04 07:45:50;;;;;;;24.88;6.85;;;;;;;9.91;67.55;101762.88;5031868;28;20029;-76
2022/05/04 07:48:16;;;;;;;20.27;6.72;;;;;;;9.99;65.78;101771.38;5033425;28;20029;-76
2022/05/04 07:50:41;;;;;;;18.40;6.50;;;;;;;10.07;65.42;101768.25;5033374;28;20021;-76
2022/05/04 07:53:06;;;;;;;23.33;7.55;;;;;;;10.10;65.81;101774.31;5033394;28;20419;-76
2022/05/04 07:55:32;;;;;;;19.55;6.55;;;;;;;10.11;64.21;101769.81;5032003;28;20056;-76
2022/05/04 07:57:58;;;;;;;21.38;6.15;;;;;;;10.13;63.96;101776.84;5033264;28;20025;-76
2022/05/04 08:05:51;;;;;;;23.95;7.88;;;;;;;10.32;63.82;101778.47;5013359;28;20040;-76
2022/05/04 08:08:16;;;;;;;19.42;6.82;;;;;;;10.34;62.60;101773.91;4995326;28;20409;-76
2022/05/04 08:10:42;;;;;;;18.27;6.93;;;;;;;10.40;63.47;101776.25;5012130;28;20038;-76
2022/05/04 08:13:07;;;;;;;24.15;7.38;;;;;;;10.45;63.11;101778.66;5013113;28;20022;-76
2022/05/04 08:15:33;;;;;;;23.13;7.85;;;;;;;10.49;62.15;101780.22;5011799;28;20034;-76
2022/05/04 08:17:59;;;;;;;21.80;7.93;;;;;;;10.55;62.47;101777.16;5021582;28;20060;-76
2022/05/04 08:20:25;;;;;;;21.83;7.32;;;;;;;10.57;61.99;101771.69;5032985;28;20392;-76
2022/05/04 08:22:51;;;;;;;25.50;7.63;;;;;;;10.63;63.40;101774.91;5031394;28;20029;-76
2022/05/04 08:25:17;;;;;;;21.80;6.82;;;;;;;10.63;61.37;101771.34;5031491;28;20029;-76
2022/05/04 08:27:43;;;;;;;20.40;7.03;;;;;;;10.65;60.95;101775.66;5032677;28;20021;-76
2022/05/04 08:30:09;;;;;;;20.83;6.15;;;;;;;10.69;61.93;101780.84;5032991;28;20021;-76
2022/05/04 08:32:34;;;;;;;19.70;7.25;;;;;;;10.71;62.33;101774.44;5031030;28;20044;-76
2022/05/04 08:35:00;;;;;;;21.83;7.65;;;;;;;10.78;63.51;101777.66;5032579;28;20147;-76
2022/05/04 08:37:29;;;;;;;21.23;8.15;;;;;;;10.83;62.25;101776.41;5032436;28;20051;-76
2022/05/04 08:39:55;;;;;;;20.98;7.60;;;;;;;10.91;63.03;101786.72;5027683;28;20468;-76
2022/05/04 08:42:21;;;;;;;20.70;7.65;;;;;;;10.95;62.43;101779.31;5012463;28;20032;-76
2022/05/04 08:44:48;;;;;;;21.73;7.70;;;;;;;11.02;62.43;101773.50;5012726;28;20072;-76
2022/05/04 08:47:17;;;;;;;20.88;7.47;;;;;;;11.05;62.25;101783.19;5014710;28;20557;-76
2022/05/04 08:49:42;;;;;;;21.50;7.20;;;;;;;11.08;60.28;101774.91;5030991;28;20473;-76
2022/05/04 08:52:07;;;;;;;24.17;8.75;;;;;;;11.05;58.92;101769.72;5032053;28;20026;-76
2022/05/04 08:54:33;;;;;;;23.20;7.53;;;;;;;11.14;60.80;101769.19;5032262;28;20124;-76
2022/05/04 08:56:59;;;;;;;26.05;8.20;;;;;;;11.22;60.89;101767.84;5032346;28;20112;-76
2022/05/04 08:59:25;;;;;;;20.15;7.10;;;;;;;11.32;61.87;101769.88;5014763;28;20025;-76
2022/05/04 09:01:50;;;;;;;20.77;6.95;;;;;;;11.40;61.51;101768.53;5032080;28;20108;-76
2022/05/04 09:04:16;;;;;;;21.75;7.50;;;;;;;11.45;61.00;101767.28;5030963;28;20131;-76
2022/05/04 09:06:43;;;;;;;23.60;7.82;;;;;;;11.48;60.48;101774.28;5031837;28;20025;-76
2022/05/04 09:09:10;;;;;;;24.05;8.07;;;;;;;11.44;57.18;101768.25;5031675;28;20046;-76
2022/05/04 09:11:41;;;;;;;21.73;7.65;;;;;;;11.52;60.24;101765.06;5018893;28;20030;-76
2022/05/04 09:14:12;;;;;;;21.55;8.35;;;;;;;11.61;61.39;101772.59;5012218;28;20040;-76
2022/05/04 09:16:38;;;;;;;19.45;6.93;;;;;;;11.63;58.18;101756.34;5012160;28;20109;-76
2022/05/04 09:19:12;;;;;;;20.15;6.30;;;;;;;11.67;58.76;101755.16;5029399;28;20082;-76
2022/05/04 09:21:39;;;;;;;22.48;7.93;;;;;;;11.68;58.41;101757.78;5031493;28;20079;-76
2022/05/04 09:24:05;;;;;;;20.45;7.22;;;;;;;11.74;58.91;101752.94;5031650;28;20028;-76
2022/05/04 09:26:31;;;;;;;22.80;8.75;;;;;;;11.79;60.04;101751.69;5031668;28;20075;-76
2022/05/04 09:28:58;;;;;;;24.55;9.25;;;;;;;11.85;59.24;101751.28;5031537;28;20835;-76
2022/05/04 09:31:25;;;;;;;20.85;7.75;;;;;;;11.95;61.15;101750.72;5031374;28;20025;-76
2022/05/04 09:34:09;;;;;;;22.42;8.20;;;;;;;11.95;58.82;101750.72;5030132;28;20457;-76
2022/05/04 09:36:38;;;;;;;22.90;8.55;;;;;;;11.89;56.81;101749.28;5029873;28;20029;-76
2022/05/04 09:45:12;;;;;;;20.83;6.95;;;;;;;12.02;57.70;101742.16;5031698;28;20103;-76
2022/05/04 09:47:38;;;;;;;;;;;;;;;12.06;57.93;101748.19;5030256;28;20025;-76
2022/05/04 09:50:04;;;;;;;27.83;9.40;;;;;;;12.08;56.63;101743.59;5030084;28;19913;-76
2022/05/04 09:52:41;;;;;;;20.15;7.75;;;;;;;12.11;57.31;101751.47;5031441;28;20499;-76
2022/05/04 09:55:26;;;;;;;21.52;8.27;;;;;;;12.16;58.06;101745.78;5031157;28;20029;-76
2022/05/04 09:57:54;;;;;;;21.63;7.85;;;;;;;12.16;55.02;101740.41;5030902;28;20397;-76
2022/05/04 10:00:21;;;;;;;20.60;6.72;;;;;;;12.23;57.74;101745.25;5022869;28;20121;-76
2022/05/04 10:02:48;;;;;;;20.35;7.35;;;;;;;12.26;55.20;101740.66;5011200;28;20038;-76
2022/05/04 10:05:14;;;;;;;23.38;8.35;;;;;;;12.29;55.66;101740.44;5011313;28;20424;-76
2022/05/04 10:07:41;;;;;;;23.23;7.97;;;;;;;12.36;57.54;101739.09;5010475;28;20077;-76
2022/05/04 10:10:09;;;;;;;21.60;7.32;;;;;;;12.44;57.03;101742.09;5011405;28;20050;-76
2022/05/04 10:12:39;;;;;;;23.67;8.43;;;;;;;12.44;54.80;101739.41;5011350;28;20038;-76
2022/05/04 10:15:15;;;;;;;18.48;6.97;;;;;;;12.51;56.54;101743.44;5011654;28;20516;-76
2022/05/04 10:18:04;;;;;;;22.17;7.82;;;;;;;12.54;56.24;101739.66;5015819;28;20075;-76
2022/05/04 10:20:38;;;;;;;19.65;6.93;;;;;;;12.59;55.00;101730.31;5031292;28;20035;-76
2022/05/04 10:23:22;;;;;;;22.35;7.80;;;;;;;12.69;56.46;101726.97;5029614;28;20033;-76
2022/05/04 10:25:50;;;;;;;19.40;7.43;;;;;;;12.74;55.05;101728.38;5013359;28;20029;-76
2022/05/04 10:28:15;;;;;;;22.25;8.65;;;;;;;12.79;55.54;101730.75;5031005;28;20103;-76
2022/05/04 10:30:58;;;;;;;24.23;8.75;;;;;;;12.80;55.31;101726.22;5029388;28;20084;-76
2022/05/04 10:33:33;;;;;;;22.75;8.45;;;;;;;12.86;55.47;101732.06;5029525;28;20092;-76
2022/05/04 10:36:19;;;;;;;21.45;8.05;;;;;;;12.92;57.09;101737.03;5030705;28;20080;-76
2022/05/04 10:38:45;;;;;;;21.55;8.13;;;;;;;12.96;54.70;101731.44;5029408;28;20087;-76
2022/05/04 10:41:15;;;;;;;20.48;7.63;;;;;;;13.02;56.25;101729.19;5015448;28;20026;-76
2022/05/04 10:43:43;;;;;;;23.50;7.68;;;;;;;13.05;53.69;101723.56;5011103;28;20022;-76
2022/05/04 10:46:16;;;;;;;22.97;8.30;;;;;;;13.10;54.51;101734.03;5009691;28;20026;-76
2022/05/04 10:48:53;;;;;;;23.98;8.13;;;;;;;13.10;54.07;101734.03;5023908;28;20040;-76
2022/05/04 10:51:21;;;;;;;22.08;8.18;;;;;;;13.10;53.67;101723.25;5029235;28;20033;-76
2022/05/04 10:53:53;;;;;;;24.00;8.18;;;;;;;13.10;53.79;101718.72;5030719;28;20041;-76
2022/05/04 10:56:21;;;;;;;22.42;8.02;;;;;;;13.18;54.85;101722.72;5030797;28;20084;-76
2022/05/04 10:58:56;;;;;;;22.20;8.43;;;;;;;13.23;53.57;101724.09;5029187;28;20037;-76
2022/05/04 11:01:34;;;;;;;24.85;9.55;;;;;;;13.23;54.13;101709.75;5030528;28;20021;-76
2022/05/04 11:04:11;;;;;;;21.90;8.25;;;;;;;13.28;54.03;101713.00;5030373;28;20041;-76
2022/05/04 11:06:55;;;;;;;22.52;7.82;;;;;;;13.40;53.86;101708.59;5030316;28;20413;-76
2022/05/04 11:09:26;;;;;;;25.60;8.18;;;;;;;13.42;51.68;101712.88;5028970;28;20065;-76
2022/05/04 11:11:54;;;;;;;24.90;8.93;;;;;;;13.44;51.86;101705.56;5015307;28;20069;-76
2022/05/04 11:14:22;;;;;;;22.58;9.02;;;;;;;13.45;52.82;101709.97;5010781;28;20026;-76
2022/05/04 11:16:49;;;;;;;21.27;8.60;;;;;;;13.49;52.76;101707.06;5009330;28;20030;-76
2022/05/04 11:19:17;;;;;;;22.05;8.52;;;;;;;13.52;53.39;101705.00;5030159;28;20033;-76
2022/05/04 11:21:42;;;;;;;21.92;8.23;;;;;;;13.58;52.55;101699.13;5033847;28;20032;-76
2022/05/04 11:24:10;;;;;;;24.15;7.95;;;;;;;13.69;52.89;101692.09;5032757;28;20029;-76
2022/05/04 11:26:50;;;;;;;23.13;8.25;;;;;;;13.79;53.21;101693.16;5033704;28;20025;-76
2022/05/04 11:29:17;;;;;;;21.67;7.07;;;;;;;13.91;55.33;101702.19;5033996;28;20033;-76
2022/05/04 11:31:47;;;;;;;24.77;9.27;;;;;;;13.96;52.51;101698.16;5033680;28;20025;-76
2022/05/04 11:34:14;;;;;;;;;;;;;;;13.97;54.13;101697.19;5032811;28;20168;-76
2022/05/04 11:36:42;;;;;;;23.48;8.40;;;;;;;14.08;52.72;101700.94;5032090;28;19913;-76
2022/05/04 11:39:08;;;;;;;20.88;7.07;;;;;;;14.06;51.67;101695.66;5033618;28;20025;-76
2022/05/04 11:41:33;;;;;;;21.67;8.45;;;;;;;14.11;52.91;101687.19;5032244;28;20087;-76
2022/05/04 11:43:58;;;;;;;20.83;8.48;;;;;;;14.23;55.17;101690.81;5032173;28;20025;-76
2022/05/04 11:46:24;;;;;;;23.83;9.05;;;;;;;14.29;54.52;101682.22;5033418;28;20033;-76
2022/05/04 11:48:49;;;;;;;25.00;8.23;;;;;;;14.37;52.95;101684.38;5033342;28;20405;-76
2022/05/04 11:51:17;;;;;;;20.27;8.60;;;;;;;14.41;51.10;101688.56;5033400;28;20080;-77